createdAt,value
2022-11-24T00:01:46.096Z,6.60
2022-11-24T00:04:12.837Z,6.60
2022-11-24T00:06:39.444Z,6.50
2022-11-24T00:09:06.646Z,6.50
2022-11-24T00:11:34.416Z,6.50
2022-11-24T00:14:01.395Z,6.50
2022-11-24T00:16:29.264Z,6.50
2022-11-24T00:18:56.864Z,6.50
2022-11-24T00:21:24.273Z,6.50
2022-11-24T00:23:51.536Z,6.40
2022-11-24T00:26:18.168Z,6.40
2022-11-24T00:28:46.413Z,6.30
2022-11-24T00:31:18.060Z,6.30
2022-11-24T00:33:45.387Z,6.30
2022-11-24T00:36:12.016Z,6.40
2022-11-24T00:38:38.646Z,6.50
2022-11-24T00:41:05.434Z,6.50
2022-11-24T00:43:32.113Z,6.60
2022-11-24T00:45:58.765Z,6.70
2022-11-24T00:48:25.682Z,6.70
2022-11-24T00:50:56.420Z,6.80
2022-11-24T00:53:23.045Z,6.80
2022-11-24T00:55:50.114Z,6.90
2022-11-24T00:58:16.734Z,6.90
2022-11-24T01:00:43.495Z,6.90
2022-11-24T01:03:10.156Z,6.90
2022-11-24T01:05:37.058Z,7.00
2022-11-24T01:08:03.733Z,7.00
2022-11-24T01:10:30.443Z,7.00
2022-11-24T01:12:57.372Z,7.00
2022-11-24T01:15:24.044Z,7.10
2022-11-24T01:17:50.685Z,7.10
2022-11-24T01:20:17.590Z,7.20
2022-11-24T01:22:44.225Z,7.20
2022-11-24T01:25:11.567Z,7.20
2022-11-24T01:27:38.287Z,7.20
2022-11-24T01:30:05.808Z,7.30
2022-11-24T01:32:33.304Z,7.30
2022-11-24T01:35:00.023Z,7.10
2022-11-24T01:37:26.606Z,7.00
2022-11-24T01:39:53.278Z,6.90
2022-11-24T01:42:19.979Z,6.90
2022-11-24T01:44:48.367Z,6.90
2022-11-24T01:47:26.014Z,6.90
2022-11-24T01:49:54.581Z,6.80
2022-11-24T01:52:30.136Z,6.80
2022-11-24T01:54:58.469Z,6.70
2022-11-24T01:57:30.669Z,6.70
2022-11-24T01:59:59.737Z,6.60
2022-11-24T02:02:28.123Z,6.50
2022-11-24T02:04:55.933Z,6.40
2022-11-24T02:07:22.699Z,6.40
2022-11-24T02:09:51.636Z,6.30
2022-11-24T02:12:18.257Z,6.30
2022-11-24T02:14:45.939Z,6.30
2022-11-24T02:17:12.652Z,6.20
2022-11-24T02:19:39.229Z,6.20
2022-11-24T02:22:08.982Z,6.10
2022-11-24T02:24:43.372Z,6.10
2022-11-24T02:27:10.138Z,6.20
2022-11-24T02:29:37.248Z,6.20
2022-11-24T02:32:05.579Z,6.30
2022-11-24T02:34:32.439Z,6.30
2022-11-24T02:36:59.460Z,6.20
2022-11-24T02:39:26.363Z,6.40
2022-11-24T02:42:01.664Z,6.50
2022-11-24T02:44:30.427Z,6.50
2022-11-24T02:47:07.383Z,6.70
2022-11-24T02:49:34.090Z,6.70
2022-11-24T02:52:01.046Z,6.70
2022-11-24T02:54:28.080Z,6.60
2022-11-24T02:56:54.758Z,6.60
2022-11-24T02:59:21.458Z,6.50
2022-11-24T03:01:48.150Z,6.50
2022-11-24T03:04:15.005Z,6.40
2022-11-24T03:06:43.300Z,6.40
2022-11-24T03:09:10.764Z,6.40
2022-11-24T03:11:37.995Z,6.30
2022-11-24T03:14:05.078Z,6.30
2022-11-24T03:16:31.753Z,6.30
2022-11-24T03:18:58.756Z,6.30
2022-11-24T03:21:25.378Z,6.20
2022-11-24T03:23:52.368Z,6.20
2022-11-24T03:26:19.894Z,6.10
2022-11-24T03:28:46.737Z,6.10
2022-11-24T03:31:13.736Z,6.00
2022-11-24T03:33:40.545Z,6.00
2022-11-24T03:36:07.966Z,6.00
2022-11-24T03:38:34.555Z,5.90
2022-11-24T03:41:01.232Z,5.90
2022-11-24T03:43:27.855Z,5.80
2022-11-24T03:45:54.470Z,5.80
2022-11-24T03:48:21.323Z,5.70
2022-11-24T03:50:56.080Z,5.70
2022-11-24T03:53:23.186Z,5.60
2022-11-24T03:55:49.847Z,5.60
2022-11-24T03:58:16.456Z,5.60
2022-11-24T04:00:43.065Z,5.60
2022-11-24T04:03:09.774Z,5.60
2022-11-24T04:05:36.450Z,5.50
2022-11-24T04:08:03.772Z,5.50
2022-11-24T04:10:30.455Z,5.50
2022-11-24T04:12:57.128Z,5.50
2022-11-24T04:15:23.859Z,5.50
2022-11-24T04:17:50.935Z,5.50
2022-11-24T04:20:17.730Z,5.60
2022-11-24T04:22:44.557Z,5.60
2022-11-24T04:25:11.614Z,5.70
2022-11-24T04:27:38.248Z,5.80
2022-11-24T04:30:06.405Z,5.90
2022-11-24T04:32:33.049Z,6.00
2022-11-24T04:34:59.628Z,6.00
2022-11-24T04:37:26.275Z,6.00
2022-11-24T04:39:54.931Z,6.00
2022-11-24T04:42:21.612Z,6.10
2022-11-24T04:44:48.213Z,6.20
2022-11-24T04:47:15.728Z,6.20
2022-11-24T04:49:42.420Z,6.30
2022-11-24T04:52:09.141Z,6.40
2022-11-24T04:54:35.991Z,6.40
2022-11-24T04:57:02.770Z,6.40
2022-11-24T04:59:29.402Z,6.50
2022-11-24T05:01:56.133Z,6.60
2022-11-24T05:04:22.818Z,6.60
2022-11-24T05:06:49.486Z,6.70
2022-11-24T05:09:16.821Z,6.60
2022-11-24T05:11:43.672Z,6.70
2022-11-24T05:14:10.418Z,6.60
2022-11-24T05:16:37.942Z,6.60
2022-11-24T05:19:04.739Z,6.60
2022-11-24T05:21:31.446Z,6.60
2022-11-24T05:23:58.081Z,6.70
2022-11-24T05:26:25.062Z,6.70
2022-11-24T05:28:51.752Z,6.70
2022-11-24T05:31:18.566Z,6.80
2022-11-24T05:33:45.750Z,6.80
2022-11-24T05:36:32.399Z,6.80
2022-11-24T05:38:59.064Z,6.70
2022-11-24T05:41:25.869Z,6.60
2022-11-24T05:43:52.780Z,6.50
2022-11-24T05:46:19.496Z,6.50
2022-11-24T05:48:46.222Z,6.40
2022-11-24T05:51:12.985Z,6.30
2022-11-24T05:53:39.650Z,6.30
2022-11-24T05:56:06.569Z,6.20
2022-11-24T05:58:33.209Z,6.10
2022-11-24T06:00:59.920Z,6.00
2022-11-24T06:03:26.589Z,5.80
2022-11-24T06:05:53.217Z,5.70
2022-11-24T06:08:19.885Z,5.70
2022-11-24T06:10:46.515Z,5.60
2022-11-24T06:13:13.298Z,5.50
2022-11-24T06:15:40.878Z,5.40
2022-11-24T06:18:07.547Z,5.30
2022-11-24T06:20:34.385Z,5.20
2022-11-24T06:23:01.267Z,5.10
2022-11-24T06:25:28.584Z,5.10
2022-11-24T06:27:55.242Z,5.10
2022-11-24T06:30:21.947Z,5.00
2022-11-24T06:32:50.034Z,4.90
2022-11-24T06:35:17.169Z,4.80
2022-11-24T06:37:44.064Z,4.70
2022-11-24T06:40:10.918Z,4.80
2022-11-24T06:42:37.653Z,4.80
2022-11-24T06:45:09.102Z,4.80
2022-11-24T06:47:36.552Z,4.90
2022-11-24T06:50:03.367Z,5.00
2022-11-24T06:52:30.113Z,5.00
2022-11-24T06:54:57.319Z,5.00
2022-11-24T06:57:23.989Z,5.10
2022-11-24T06:59:50.932Z,5.20
2022-11-24T07:02:17.696Z,5.30
2022-11-24T07:04:44.373Z,5.40
2022-11-24T07:07:11.058Z,5.50
2022-11-24T07:09:37.827Z,5.70
2022-11-24T07:12:06.000Z,5.70
2022-11-24T07:14:33.012Z,5.90
2022-11-24T07:17:02.379Z,6.00
2022-11-24T07:19:29.076Z,6.10
2022-11-24T07:21:55.927Z,6.30
2022-11-24T07:24:22.662Z,6.30
2022-11-24T07:26:49.286Z,6.40
2022-11-24T07:29:16.029Z,6.50
2022-11-24T07:31:42.979Z,6.60
2022-11-24T07:34:09.793Z,6.70
2022-11-24T07:36:36.475Z,6.70
2022-11-24T07:39:05.722Z,6.80
2022-11-24T07:41:32.527Z,6.90
2022-11-24T07:43:59.240Z,7.00
2022-11-24T07:46:26.063Z,7.00
2022-11-24T07:48:55.537Z,7.00
2022-11-24T07:51:22.198Z,7.00
2022-11-24T07:53:48.879Z,7.10
2022-11-24T07:56:15.598Z,7.10
2022-11-24T07:58:42.295Z,7.10
2022-11-24T08:01:16.110Z,7.00
2022-11-24T08:03:43.460Z,7.10
2022-11-24T08:06:29.994Z,7.10
2022-11-24T08:08:57.129Z,7.10
2022-11-24T08:11:24.130Z,7.00
2022-11-24T08:13:50.933Z,7.00
2022-11-24T08:16:18.674Z,7.00
2022-11-24T08:18:49.869Z,7.00
2022-11-24T08:21:16.751Z,7.00
2022-11-24T08:23:43.457Z,7.00
2022-11-24T08:26:16.078Z,7.00
2022-11-24T08:28:43.137Z,7.00
2022-11-24T08:31:11.332Z,7.00
2022-11-24T08:33:38.021Z,6.90
2022-11-24T08:36:04.840Z,7.00
2022-11-24T08:38:31.618Z,7.10
2022-11-24T08:41:01.928Z,7.10
2022-11-24T08:43:28.677Z,7.10
2022-11-24T08:45:55.379Z,7.00
2022-11-24T08:48:22.119Z,7.10
2022-11-24T08:50:49.064Z,7.10
2022-11-24T08:53:15.902Z,7.10
2022-11-24T08:55:42.905Z,7.10
2022-11-24T08:58:13.399Z,7.10
2022-11-24T09:00:40.276Z,7.20
2022-11-24T09:03:07.015Z,7.20
2022-11-24T09:08:20.968Z,7.20
2022-11-24T09:10:47.699Z,7.20
2022-11-24T09:13:14.429Z,7.20
2022-11-24T09:15:41.112Z,7.30
2022-11-24T09:18:08.443Z,7.30
2022-11-24T09:20:35.235Z,7.40
2022-11-24T09:23:01.940Z,7.30
2022-11-24T09:25:28.839Z,7.20
2022-11-24T09:27:56.415Z,7.30
2022-11-24T09:30:23.354Z,7.20
2022-11-24T09:32:49.986Z,7.30
2022-11-24T09:35:16.673Z,7.20
2022-11-24T09:37:45.189Z,7.50
2022-11-24T09:40:14.735Z,7.60
2022-11-24T09:42:53.410Z,7.80
2022-11-24T09:46:03.780Z,7.90
2022-11-24T09:48:29.917Z,7.90
2022-11-24T09:50:58.211Z,7.90
2022-11-24T09:54:03.376Z,8.00
2022-11-24T09:56:32.276Z,8.10
2022-11-24T09:59:05.296Z,8.20
2022-11-24T10:01:37.111Z,8.30
2022-11-24T10:04:06.574Z,8.30
2022-11-24T10:06:52.101Z,8.30
2022-11-24T10:09:38.034Z,8.30
2022-11-24T10:12:04.789Z,8.40
2022-11-24T10:14:37.452Z,8.30
2022-11-24T10:17:22.423Z,8.20
2022-11-24T10:20:18.754Z,8.20
2022-11-24T10:22:45.648Z,8.30
2022-11-24T10:25:12.632Z,8.40
2022-11-24T10:27:44.768Z,8.40
2022-11-24T10:30:15.969Z,8.60
2022-11-24T10:32:50.536Z,8.70
2022-11-24T10:35:24.461Z,8.90
2022-11-24T10:38:09.770Z,8.90
2022-11-24T10:40:56.593Z,8.90
2022-11-24T10:43:26.223Z,9.00
2022-11-24T10:45:52.938Z,8.90
2022-11-24T10:48:25.563Z,8.90
2022-11-24T10:51:01.130Z,8.90
2022-11-24T10:53:31.103Z,9.00
2022-11-24T10:55:57.832Z,9.00
2022-11-24T10:58:26.870Z,9.00
2022-11-24T11:00:57.683Z,9.10
2022-11-24T11:03:27.169Z,9.10
2022-11-24T11:05:55.967Z,9.20
2022-11-24T11:08:22.636Z,9.10
2022-11-24T11:11:09.309Z,9.00
2022-11-24T11:13:36.042Z,9.10
2022-11-24T11:16:13.830Z,9.00
2022-11-24T11:18:47.030Z,9.00
2022-11-24T11:21:24.150Z,8.90
2022-11-24T11:23:51.334Z,9.00
2022-11-24T11:26:18.133Z,9.10
2022-11-24T11:34:52.220Z,12.10
2022-11-24T11:37:19.968Z,13.50
2022-11-24T11:39:49.117Z,13.70
2022-11-24T11:45:32.176Z,12.30
2022-11-24T11:47:59.176Z,11.40
2022-11-24T11:50:30.263Z,11.50
2022-11-24T11:53:15.402Z,11.30
2022-11-24T11:55:49.854Z,11.00
2022-11-24T11:58:32.951Z,11.40
2022-11-24T12:01:18.499Z,11.90
2022-11-24T12:03:45.240Z,12.10
2022-11-24T12:06:15.987Z,12.60
2022-11-24T12:09:18.579Z,12.30
2022-11-24T12:11:43.280Z,12.00
2022-11-24T12:14:18.904Z,11.50
2022-11-24T12:16:50.456Z,11.60
2022-11-24T12:19:29.048Z,11.70
2022-11-24T12:22:18.948Z,12.00
2022-11-24T12:24:54.956Z,12.20
2022-11-24T12:27:23.353Z,12.20
2022-11-24T12:30:10.778Z,11.90
2022-11-24T12:33:02.378Z,11.80
2022-11-24T12:35:34.950Z,11.60
2022-11-24T12:38:07.391Z,11.60
2022-11-24T12:40:33.979Z,11.30
2022-11-24T12:43:16.042Z,11.20
2022-11-24T12:45:42.920Z,11.10
2022-11-24T12:48:20.797Z,11.00
2022-11-24T12:50:49.130Z,10.90
2022-11-24T12:53:26.794Z,10.90
2022-11-24T12:55:54.815Z,10.80
2022-11-24T12:58:27.563Z,10.70
2022-11-24T13:01:03.125Z,10.70
2022-11-24T13:03:51.876Z,10.80
2022-11-24T13:06:18.627Z,10.60
2022-11-24T13:08:45.495Z,10.50
2022-11-24T13:11:21.284Z,10.50
2022-11-24T13:14:20.288Z,10.50
2022-11-24T13:17:13.314Z,10.60
2022-11-24T13:19:37.181Z,10.60
2022-11-24T13:22:06.646Z,10.50
2022-11-24T13:24:42.678Z,10.60
2022-11-24T13:27:15.459Z,10.60
2022-11-24T13:29:49.198Z,10.70
2022-11-24T13:32:17.575Z,10.90
2022-11-24T13:34:45.642Z,11.00
2022-11-24T13:37:26.607Z,11.20
2022-11-24T13:40:04.149Z,11.30
2022-11-24T13:42:51.267Z,11.40
2022-11-24T13:45:35.516Z,11.20
2022-11-24T13:48:02.159Z,11.10
2022-11-24T13:50:47.355Z,11.20
2022-11-24T13:53:16.831Z,11.20
2022-11-24T13:55:52.880Z,11.00
2022-11-24T13:58:26.256Z,10.80
2022-11-24T14:01:11.678Z,10.70
2022-11-24T14:03:47.519Z,10.60
2022-11-24T14:06:27.577Z,10.50
2022-11-24T14:08:54.671Z,10.50
2022-11-24T14:11:21.774Z,10.60
2022-11-24T14:13:48.522Z,10.60
2022-11-24T14:16:19.692Z,10.60
2022-11-24T14:18:47.573Z,10.60
2022-11-24T14:21:20.552Z,10.60
2022-11-24T14:23:52.304Z,10.60
2022-11-24T14:26:23.397Z,10.60
2022-11-24T14:28:50.575Z,10.60
2022-11-24T14:31:24.795Z,10.50
2022-11-24T14:34:06.901Z,10.50
2022-11-24T14:36:33.524Z,10.60
2022-11-24T14:39:00.149Z,10.60
2022-11-24T14:41:28.372Z,10.50
2022-11-24T14:44:07.508Z,10.50
2022-11-24T14:46:34.614Z,10.50
2022-11-24T14:49:01.571Z,10.40
2022-11-24T14:51:30.704Z,10.50
2022-11-24T14:53:58.867Z,10.50
2022-11-24T14:56:38.345Z,10.40
2022-11-24T14:59:20.029Z,10.40
2022-11-24T15:01:46.838Z,10.30
2022-11-24T15:07:29.195Z,10.10
2022-11-24T15:10:00.114Z,9.90
2022-11-24T15:12:28.972Z,9.80
2022-11-24T15:15:03.107Z,9.60
2022-11-24T15:17:30.134Z,9.50
2022-11-24T15:20:02.178Z,9.50
2022-11-24T15:22:28.981Z,9.50
2022-11-24T15:24:55.672Z,9.50
2022-11-24T15:27:22.327Z,9.50
2022-11-24T15:29:49.765Z,9.40
2022-11-24T15:32:16.545Z,9.40
2022-11-24T15:34:43.489Z,9.40
2022-11-24T15:37:10.190Z,9.30
2022-11-24T15:39:36.861Z,9.20
2022-11-24T15:42:03.622Z,9.20
2022-11-24T15:44:30.896Z,9.10
2022-11-24T15:46:57.686Z,9.00
2022-11-24T15:49:24.423Z,9.00
2022-11-24T15:51:51.088Z,9.00
2022-11-24T15:54:18.744Z,9.10
2022-11-24T15:56:45.703Z,9.10
2022-11-24T15:59:20.713Z,9.10
2022-11-24T16:01:49.699Z,9.10
2022-11-24T16:04:16.678Z,9.00
2022-11-24T16:06:43.355Z,8.90
2022-11-24T16:09:14.539Z,8.90
2022-11-24T16:11:41.432Z,8.90
2022-11-24T16:14:08.230Z,8.80
2022-11-24T16:16:35.090Z,8.80
2022-11-24T16:19:02.074Z,8.80
2022-11-24T16:21:28.788Z,8.80
2022-11-24T16:23:55.510Z,8.80
2022-11-24T16:26:22.409Z,8.80
2022-11-24T16:28:49.075Z,8.70
2022-11-24T16:31:16.609Z,8.60
2022-11-24T16:33:44.900Z,8.60
2022-11-24T16:36:11.977Z,8.60
2022-11-24T16:38:38.699Z,8.50
2022-11-24T16:41:05.493Z,8.50
2022-11-24T16:43:32.240Z,8.40
2022-11-24T16:46:15.871Z,8.30
2022-11-24T16:48:42.999Z,8.20
2022-11-24T16:51:10.180Z,8.10
2022-11-24T16:53:37.330Z,8.00
2022-11-24T16:56:04.171Z,7.80
2022-11-24T16:58:30.890Z,7.70
2022-11-24T17:01:10.662Z,7.50
2022-11-24T17:03:37.680Z,7.40
2022-11-24T17:06:05.628Z,7.20
2022-11-24T17:08:33.183Z,7.10
2022-11-24T17:11:26.016Z,6.80
2022-11-24T17:13:52.856Z,6.70
2022-11-24T17:16:20.782Z,6.50
2022-11-24T17:18:47.904Z,6.40
2022-11-24T17:21:18.726Z,6.30
2022-11-24T17:23:45.603Z,6.10
2022-11-24T17:26:13.792Z,5.90
2022-11-24T17:28:40.964Z,5.80
2022-11-24T17:31:08.791Z,5.80
2022-11-24T17:33:36.257Z,5.60
2022-11-24T17:36:04.005Z,5.50
2022-11-24T17:38:31.115Z,5.50
2022-11-24T17:40:58.025Z,5.40
2022-11-24T17:43:24.956Z,5.30
2022-11-24T17:45:55.588Z,5.20
2022-11-24T17:48:24.192Z,5.10
2022-11-24T17:50:59.969Z,5.10
2022-11-24T17:53:26.840Z,4.90
2022-11-24T17:55:53.482Z,4.80
2022-11-24T17:58:20.157Z,4.70
2022-11-24T18:00:48.823Z,4.60
2022-11-24T18:03:15.578Z,4.60
2022-11-24T18:05:42.239Z,4.50
2022-11-24T18:08:08.947Z,4.40
2022-11-24T18:10:35.874Z,4.30
2022-11-24T18:13:02.667Z,4.30
2022-11-24T18:15:29.344Z,4.20
2022-11-24T18:17:56.043Z,4.20
2022-11-24T18:20:22.780Z,4.10
2022-11-24T18:23:05.090Z,4.00
2022-11-24T18:25:33.213Z,3.90
2022-11-24T18:27:59.850Z,3.80
2022-11-24T18:30:26.520Z,3.70
2022-11-24T18:32:53.136Z,3.70
2022-11-24T18:35:20.164Z,3.60
2022-11-24T18:37:46.965Z,3.60
2022-11-24T18:40:13.844Z,3.60
2022-11-24T18:42:40.673Z,3.50
2022-11-24T18:45:08.119Z,3.40
2022-11-24T18:47:34.902Z,3.30
2022-11-24T18:50:01.658Z,3.30
2022-11-24T18:52:28.360Z,3.20
2022-11-24T18:54:55.113Z,3.10
2022-11-24T18:57:21.771Z,3.10
2022-11-24T18:59:48.588Z,3.10
2022-11-24T19:02:15.369Z,3.00
2022-11-24T19:04:42.357Z,3.00
2022-11-24T19:07:09.375Z,3.00
2022-11-24T19:09:36.182Z,2.90
2022-11-24T19:12:03.138Z,2.80
2022-11-24T19:14:30.101Z,2.70
2022-11-24T19:16:56.880Z,2.70
2022-11-24T19:19:23.574Z,2.80
2022-11-24T19:21:50.242Z,2.60
2022-11-24T19:24:16.995Z,2.80
2022-11-24T19:26:43.718Z,2.50
2022-11-24T19:29:10.460Z,2.50
2022-11-24T19:31:39.434Z,2.40
2022-11-24T19:34:07.938Z,2.40
2022-11-24T19:36:34.634Z,2.40
2022-11-24T19:39:03.113Z,2.30
2022-11-24T19:41:30.484Z,2.30
2022-11-24T19:43:58.681Z,2.50
2022-11-24T19:46:27.207Z,2.30
2022-11-24T19:48:56.163Z,2.20
2022-11-24T19:51:24.948Z,2.20
2022-11-24T19:53:51.832Z,2.10
2022-11-24T19:56:20.141Z,2.10
2022-11-24T19:58:47.380Z,2.10
2022-11-24T20:01:16.298Z,2.00
2022-11-24T20:03:44.204Z,2.00
2022-11-24T20:06:11.941Z,2.00
2022-11-24T20:08:39.581Z,1.90
2022-11-24T20:11:10.042Z,1.90
2022-11-24T20:13:38.027Z,1.90
2022-11-24T20:16:11.514Z,1.80
2022-11-24T20:18:42.009Z,1.80
2022-11-24T20:21:13.655Z,1.70
2022-11-24T20:23:40.440Z,1.70
2022-11-24T20:26:12.120Z,1.70
2022-11-24T20:28:39.237Z,1.60
2022-11-24T20:31:07.101Z,1.60
2022-11-24T20:33:34.679Z,1.60
2022-11-24T20:36:09.147Z,1.70
2022-11-24T20:38:36.308Z,1.60
2022-11-24T20:41:07.494Z,1.60
2022-11-24T20:43:36.460Z,1.60
2022-11-24T20:46:07.216Z,1.50
2022-11-24T20:48:34.185Z,1.50
2022-11-24T20:51:12.055Z,1.50
2022-11-24T20:53:38.981Z,1.40
2022-11-24T20:56:08.499Z,1.40
2022-11-24T20:58:35.852Z,1.40
2022-11-24T21:01:07.028Z,1.40
2022-11-24T21:03:36.210Z,1.40
2022-11-24T21:06:06.821Z,1.40
2022-11-24T21:08:34.201Z,1.30
2022-11-24T21:11:00.965Z,1.40
2022-11-24T21:13:28.011Z,1.40
2022-11-24T21:15:54.827Z,1.30
2022-11-24T21:18:21.821Z,1.30
2022-11-24T21:20:48.572Z,1.20
2022-11-24T21:23:15.421Z,1.30
2022-11-24T21:25:42.331Z,1.20
2022-11-24T21:28:09.509Z,1.20
2022-11-24T21:30:37.303Z,1.20
2022-11-24T21:33:04.495Z,1.20
2022-11-24T21:35:34.273Z,1.20
2022-11-24T21:38:00.929Z,1.10
2022-11-24T21:40:28.129Z,1.10
2022-11-24T21:42:54.930Z,1.10
2022-11-24T21:45:21.572Z,1.10
2022-11-24T21:47:48.266Z,1.10
2022-11-24T21:50:15.018Z,1.10
2022-11-24T21:52:41.704Z,1.10
2022-11-24T21:55:08.819Z,1.10
2022-11-24T21:57:35.449Z,1.10
2022-11-24T22:00:02.154Z,1.00
2022-11-24T22:02:28.923Z,1.00
2022-11-24T22:04:55.651Z,1.00
2022-11-24T22:07:22.345Z,1.00
2022-11-24T22:09:49.772Z,1.00
2022-11-24T22:12:16.824Z,0.90
2022-11-24T22:14:43.708Z,0.90
2022-11-24T22:17:10.508Z,0.90
2022-11-24T22:19:37.179Z,0.80
2022-11-24T22:22:03.815Z,0.80
2022-11-24T22:24:30.514Z,0.80
2022-11-24T22:26:57.183Z,1.00
2022-11-24T22:29:24.069Z,0.70
2022-11-24T22:31:50.845Z,0.70
2022-11-24T22:34:17.515Z,0.60
2022-11-24T22:36:44.196Z,0.70
2022-11-24T22:39:11.572Z,0.90
2022-11-24T22:41:38.231Z,0.60
2022-11-24T22:44:05.198Z,0.60
2022-11-24T22:46:32.089Z,0.50
2022-11-24T22:48:59.838Z,0.50
2022-11-24T22:51:29.984Z,0.80
2022-11-24T22:53:57.990Z,0.50
2022-11-24T22:56:25.084Z,0.50
2022-11-24T22:58:51.890Z,0.60
2022-11-24T23:01:22.904Z,0.40
2022-11-24T23:03:50.003Z,0.50
2022-11-24T23:06:17.788Z,0.40
2022-11-24T23:08:44.534Z,0.30
2022-11-24T23:11:12.704Z,0.40
2022-11-24T23:13:39.458Z,0.30
2022-11-24T23:16:09.759Z,0.30
2022-11-24T23:18:36.559Z,0.30
2022-11-24T23:21:06.189Z,0.30
2022-11-24T23:23:32.938Z,0.30
2022-11-24T23:26:00.456Z,0.30
2022-11-24T23:28:27.274Z,0.30
2022-11-24T23:30:53.914Z,0.30
2022-11-24T23:33:20.555Z,0.20
2022-11-24T23:35:47.271Z,0.20
2022-11-24T23:38:14.057Z,0.20
2022-11-24T23:40:40.729Z,0.20
2022-11-24T23:43:07.419Z,0.10
2022-11-24T23:45:34.098Z,0.20
2022-11-24T23:48:01.678Z,0.20
2022-11-24T23:50:28.769Z,0.20
2022-11-24T23:52:55.453Z,0.10
2022-11-24T23:55:22.215Z,0.10
2022-11-24T23:57:48.885Z,0.10
